createdAt,value
2019-06-10T00:03:06.017Z,87.60
2019-06-10T00:08:12.037Z,87.10
2019-06-10T00:13:17.217Z,86.10
2019-06-10T00:18:35.304Z,86.90
2019-06-10T00:23:47.316Z,86.10
2019-06-10T00:28:51.441Z,85.80
2019-06-10T00:33:55.938Z,86.30
2019-06-10T00:38:59.400Z,87.40
2019-06-10T00:44:04.934Z,86.60
2019-06-10T00:54:15.684Z,86.90
2019-06-10T00:59:22.107Z,86.30
2019-06-10T01:04:25.103Z,86.80
2019-06-10T01:09:28.443Z,86.60
2019-06-10T01:19:36.083Z,85.70
2019-06-10T01:24:40.794Z,85.90
2019-06-10T01:29:44.181Z,86.10
2019-06-10T01:39:54.000Z,88.40
2019-06-10T01:50:00.834Z,89.90
2019-06-10T01:55:05.774Z,89.60
2019-06-10T02:00:15.928Z,90.20
2019-06-10T02:05:17.743Z,89.80
2019-06-10T02:10:22.987Z,90.50
2019-06-10T02:15:26.813Z,90.10
2019-06-10T02:20:31.777Z,89.70
2019-06-10T02:25:35.629Z,90.40
2019-06-10T02:35:49.022Z,90.60
2019-06-10T02:40:53.602Z,90.80
2019-06-10T02:45:56.473Z,91.50
2019-06-10T02:56:12.641Z,91.30
2019-06-10T03:01:17.346Z,91.30
2019-06-10T03:06:30.352Z,91.80
2019-06-10T03:11:31.929Z,92.10
2019-06-10T03:16:52.969Z,92.60
2019-06-10T03:21:57.048Z,92.50
2019-06-10T03:27:02.602Z,92.10
2019-06-10T03:32:05.893Z,91.70
2019-06-10T03:37:09.941Z,91.30
2019-06-10T03:47:17.150Z,89.00
2019-06-10T03:52:23.521Z,87.40
2019-06-10T03:57:28.226Z,86.90
2019-06-10T04:02:32.665Z,87.40
2019-06-10T04:07:36.334Z,84.20
2019-06-10T04:12:39.676Z,82.10
2019-06-10T04:17:43.222Z,80.90
2019-06-10T04:22:46.930Z,79.20
2019-06-10T04:27:52.331Z,79.30
2019-06-10T04:32:57.174Z,77.60
2019-06-10T04:38:02.484Z,77.30
2019-06-10T04:43:05.709Z,78.00
2019-06-10T04:48:09.095Z,77.10
2019-06-10T04:53:12.932Z,76.90
2019-06-10T04:58:16.516Z,75.90
2019-06-10T05:03:20.892Z,76.70
2019-06-10T05:08:26.914Z,76.70
2019-06-10T05:13:30.393Z,76.70
2019-06-10T05:18:34.115Z,76.50
2019-06-10T05:28:43.165Z,77.70
2019-06-10T05:33:46.281Z,81.50
2019-06-10T05:38:52.361Z,77.80
2019-06-10T05:43:55.200Z,79.00
2019-06-10T05:48:59.592Z,78.00
2019-06-10T05:54:03.051Z,77.30
2019-06-10T05:59:08.395Z,77.90
2019-06-10T06:04:13.350Z,78.20
2019-06-10T06:09:16.629Z,79.70
2019-06-10T06:14:22.477Z,81.40
2019-06-10T06:29:36.190Z,88.90
2019-06-10T06:34:39.477Z,90.30
2019-06-10T06:39:43.039Z,91.30
2019-06-10T06:54:55.782Z,93.70
2019-06-10T07:10:07.605Z,96.80
2019-06-10T07:15:13.240Z,97.20
2019-06-10T07:25:22.853Z,96.40
2019-06-10T07:30:26.440Z,96.50
2019-06-10T07:35:32.596Z,96.40
2019-06-10T07:40:36.547Z,95.80
2019-06-10T07:45:45.180Z,95.70
2019-06-10T08:00:55.847Z,95.10
2019-06-10T08:05:59.170Z,94.50
2019-06-10T08:11:03.410Z,94.20
2019-06-10T08:21:13.662Z,93.80
2019-06-10T08:26:18.815Z,93.70
2019-06-10T08:31:25.058Z,93.50
2019-06-10T08:36:28.583Z,93.40
2019-06-10T08:46:36.839Z,93.10
2019-06-10T09:01:56.567Z,90.40
2019-06-10T09:12:03.628Z,88.90
2019-06-10T09:17:06.963Z,83.20
2019-06-10T09:27:18.229Z,84.50
2019-06-10T09:37:27.723Z,81.30
2019-06-10T09:42:33.313Z,81.90
2019-06-10T09:47:38.411Z,80.50
2019-06-10T09:52:47.537Z,80.10
2019-06-10T10:02:56.224Z,79.50
2019-06-10T10:07:59.049Z,79.50
2019-06-10T10:13:02.761Z,77.80
2019-06-10T10:18:08.571Z,73.50
2019-06-10T10:33:23.589Z,70.10
2019-06-10T10:38:26.368Z,67.60
2019-06-10T10:53:38.737Z,66.20
2019-06-10T10:58:45.336Z,66.00
2019-06-10T11:29:13.429Z,60.80
2019-06-10T11:44:26.897Z,59.50
2019-06-10T11:59:39.005Z,57.60
2019-06-10T12:14:51.549Z,54.30
2019-06-10T12:25:26.713Z,52.90
2019-06-10T12:30:07.204Z,52.20
2019-06-10T12:40:17.040Z,49.30
2019-06-10T12:50:27.120Z,49.60
2019-06-10T12:55:39.310Z,47.50
2019-06-10T13:00:44.607Z,46.60
2019-06-10T13:05:47.923Z,46.80
2019-06-10T13:10:53.236Z,47.20
2019-06-10T13:15:58.135Z,43.70
2019-06-10T13:21:06.972Z,41.70
2019-06-10T13:26:11.908Z,41.10
2019-06-10T13:41:22.581Z,39.50
2019-06-10T13:51:29.561Z,38.50
2019-06-10T13:56:46.345Z,39.60
2019-06-10T14:01:38.708Z,39.10
2019-06-10T14:06:49.504Z,39.50
2019-06-10T14:11:47.226Z,36.50
2019-06-10T14:16:53.028Z,36.80
2019-06-10T14:21:55.851Z,32.40
2019-06-10T14:26:59.267Z,30.80
2019-06-10T14:32:04.103Z,28.70
2019-06-10T14:37:10.397Z,27.40
2019-06-10T14:42:16.014Z,26.20
2019-06-10T14:47:22.998Z,25.50
2019-06-10T15:07:42.325Z,26.90
2019-06-10T15:12:45.801Z,27.20
2019-06-10T15:17:52.268Z,25.90
2019-06-10T15:22:55.176Z,25.40
2019-06-10T15:27:58.526Z,24.50
2019-06-10T15:33:02.998Z,23.50
2019-06-10T15:38:08.773Z,23.30
2019-06-10T15:43:13.828Z,22.70
2019-06-10T15:48:19.710Z,22.20
2019-06-10T15:53:25.786Z,22.30
2019-06-10T15:58:28.798Z,22.20
2019-06-10T16:03:33.190Z,22.00
2019-06-10T16:08:36.565Z,22.00
2019-06-10T16:13:39.902Z,21.80
2019-06-10T16:33:56.914Z,24.10
2019-06-10T16:39:00.239Z,23.60
2019-06-10T16:44:03.537Z,23.30
2019-06-10T17:04:24.001Z,23.60
2019-06-10T17:09:27.805Z,24.30
2019-06-10T17:14:33.589Z,25.50
2019-06-10T17:19:37.877Z,26.00
2019-06-10T17:24:42.316Z,26.60
2019-06-10T17:44:59.666Z,29.10
2019-06-10T17:50:04.992Z,30.20
2019-06-10T17:55:08.390Z,32.70
2019-06-10T18:00:14.755Z,36.10
2019-06-10T18:05:18.769Z,39.20
2019-06-10T18:15:28.208Z,46.80
2019-06-10T18:30:43.618Z,59.00
2019-06-10T18:51:13.701Z,85.20
2019-06-10T18:56:17.304Z,91.00
2019-06-10T19:01:22.628Z,92.70
2019-06-10T19:16:38.579Z,96.80
2019-06-10T19:41:59.567Z,99.90
2019-06-10T20:17:26.438Z,99.90
2019-06-10T20:27:35.601Z,99.90
2019-06-10T20:32:41.542Z,99.90
2019-06-10T20:43:09.167Z,99.90
2019-06-10T21:03:26.608Z,99.90
2019-06-10T21:13:38.165Z,99.90
2019-06-10T21:28:55.749Z,99.90
2019-06-10T21:39:07.207Z,99.90
2019-06-10T21:44:13.156Z,99.90
2019-06-10T21:54:22.400Z,99.90
2019-06-10T21:59:25.573Z,99.90
2019-06-10T22:09:32.677Z,99.90
2019-06-10T22:14:36.099Z,99.90
2019-06-10T22:40:03.264Z,99.90
2019-06-10T22:45:07.392Z,99.90
2019-06-10T22:55:15.964Z,99.90
2019-06-10T23:00:22.256Z,99.90
2019-06-10T23:05:25.788Z,99.90
